Time;durP1;ratioP1;P1;durP2;ratioP2;P2;SDS_P1;SDS_P2;PMS_P1;PMS_P2;Temp;Humidity;BMP_temperature;BMP_pressure;BME280_temperature;BME280_humidity;BME280_pressure;Samples;Min_cycle;Max_cycle;Signal;HPM_P1;HPM_P2
2023/09/26 00:02:23;;;;;;;4.90;3.20;;;;;;;15.00;82.18;101708.55;109116;276;38707;-74
2023/09/26 00:05:03;;;;;;;4.70;3.00;;;;;;;15.00;82.39;101708.73;108882;276;41543;-74
2023/09/26 00:07:37;;;;;;;6.40;4.00;;;;;;;15.00;82.23;101704.36;109147;276;38305;-72
2023/09/26 00:10:15;;;;;;;4.10;3.50;;;;;;;14.98;82.21;101705.80;109132;276;38152;-73
2023/09/26 00:12:55;;;;;;;5.30;3.20;;;;;;;14.98;82.52;101707.08;109186;276;38261;-72
2023/09/26 00:15:33;;;;;;;3.30;2.90;;;;;;;14.98;82.55;101704.98;109150;276;39810;-72
2023/09/26 00:18:07;;;;;;;3.60;3.20;;;;;;;14.95;82.48;101705.21;109125;276;39158;-73
2023/09/26 00:20:41;;;;;;;5.40;3.80;;;;;;;14.94;82.38;101706.29;109134;276;38459;-74
2023/09/26 00:23:15;;;;;;;4.30;3.70;;;;;;;14.92;82.52;101702.85;109150;276;39062;-71
2023/09/26 00:25:50;;;;;;;3.60;3.30;;;;;;;14.89;82.51;101700.67;109124;276;38568;-71
2023/09/26 00:28:24;;;;;;;5.20;3.30;;;;;;;14.87;82.55;101701.27;109116;276;38964;-72
2023/09/26 00:31:03;;;;;;;3.80;3.20;;;;;;;14.85;82.49;101700.64;108947;276;38437;-75
2023/09/26 00:33:41;;;;;;;3.50;2.90;;;;;;;14.82;82.42;101698.82;109195;276;39335;-75
2023/09/26 00:36:17;;;;;;;4.70;3.40;;;;;;;14.80;82.58;101699.78;109084;276;38631;-72
2023/09/26 00:38:51;;;;;;;4.20;2.90;;;;;;;14.78;82.86;101698.08;108952;276;38868;-72
2023/09/26 00:41:25;;;;;;;6.00;3.40;;;;;;;14.77;82.98;101695.33;108928;276;38359;-71
2023/09/26 00:44:02;;;;;;;3.70;3.20;;;;;;;14.75;82.92;101695.56;109081;276;38740;-72
2023/09/26 00:46:45;;;;;;;5.50;3.30;;;;;;;14.73;82.88;101692.27;109132;276;38783;-75
2023/09/26 00:49:20;;;;;;;3.40;3.00;;;;;;;14.73;82.98;101692.47;109097;276;39171;-72
2023/09/26 00:51:53;;;;;;;5.00;3.20;;;;;;;14.70;83.29;101690.95;108962;276;39330;-72
2023/09/26 00:54:30;;;;;;;3.70;3.40;;;;;;;14.66;83.22;101693.57;109159;276;38464;-75
2023/09/26 00:57:09;;;;;;;4.70;3.00;;;;;;;14.62;83.14;101689.49;109320;275;38493;-75
2023/09/26 00:59:44;;;;;;;3.60;3.10;;;;;;;14.60;83.19;101689.23;109290;275;174731;-72
2023/09/26 01:02:20;;;;;;;4.10;2.90;;;;;;;14.60;83.44;101683.59;109444;275;38328;-72
2023/09/26 01:04:54;;;;;;;4.60;3.00;;;;;;;14.61;83.54;101682.84;109431;275;39760;-72
2023/09/26 01:07:28;;;;;;;3.20;2.80;;;;;;;14.60;83.75;101680.10;109467;275;38811;-73
2023/09/26 01:10:07;;;;;;;5.20;3.50;;;;;;;14.57;83.65;101682.30;109429;275;38293;-74
2023/09/26 01:12:42;;;;;;;4.50;3.50;;;;;;;14.54;83.70;101685.73;109446;275;39347;-73
2023/09/26 01:15:18;;;;;;;4.30;3.40;;;;;;;14.53;83.84;101687.33;109380;275;38781;-72
2023/09/26 01:17:58;;;;;;;3.70;3.10;;;;;;;14.52;83.96;101685.45;109394;275;38278;-74
2023/09/26 01:20:35;;;;;;;4.20;3.60;;;;;;;14.52;83.89;101686.30;109367;275;38752;-72
2023/09/26 01:23:11;;;;;;;3.90;3.50;;;;;;;14.52;84.14;101686.86;109254;275;38252;-72
2023/09/26 01:25:48;;;;;;;3.90;3.20;;;;;;;14.50;84.48;101688.48;109276;275;38752;-71
2023/09/26 01:28:22;;;;;;;5.20;3.30;;;;;;;14.47;84.23;101686.81;109228;275;39195;-74
2023/09/26 01:30:56;;;;;;;4.00;3.10;;;;;;;14.45;83.97;101685.11;109313;275;38265;-75
2023/09/26 01:33:32;;;;;;;4.00;3.30;;;;;;;14.46;84.47;101686.83;109266;275;38165;-72
2023/09/26 01:36:07;;;;;;;4.90;3.50;;;;;;;14.47;84.45;101686.27;109168;275;175135;-72
2023/09/26 01:38:44;;;;;;;4.00;3.30;;;;;;;14.48;84.50;101687.31;109314;275;39752;-73
2023/09/26 01:41:17;;;;;;;7.00;3.40;;;;;;;14.51;84.70;101683.73;109295;275;38230;-72
2023/09/26 01:43:56;;;;;;;4.90;3.50;;;;;;;14.55;84.80;101679.40;109396;275;39027;-74
2023/09/26 01:46:30;;;;;;;5.00;3.40;;;;;;;14.60;84.83;101675.88;109341;275;39338;-72
2023/09/26 01:49:06;;;;;;;5.40;3.70;;;;;;;14.62;84.76;101677.71;109415;275;39729;-74
2023/09/26 01:51:40;;;;;;;5.20;3.80;;;;;;;14.63;84.72;101676.64;109346;275;38600;-72
2023/09/26 01:54:17;;;;;;;5.80;3.70;;;;;;;14.62;84.63;101678.79;109340;275;38448;-72
2023/09/26 01:56:51;;;;;;;4.40;3.70;;;;;;;14.60;84.63;101677.63;109347;275;38793;-71
2023/09/26 01:59:28;;;;;;;5.60;3.60;;;;;;;14.57;84.63;101680.34;109383;275;38152;-74
2023/09/26 02:02:04;;;;;;;6.10;4.20;;;;;;;14.55;84.82;101681.14;109411;275;38273;-74
2023/09/26 02:04:38;;;;;;;4.60;3.50;;;;;;;14.55;84.97;101680.59;109373;275;38142;-72
2023/09/26 02:07:12;;;;;;;5.40;3.70;;;;;;;14.54;84.93;101679.05;109386;275;38945;-73
2023/09/26 02:09:52;;;;;;;5.30;3.50;;;;;;;14.52;85.07;101679.83;109345;275;38468;-74
2023/09/26 02:12:27;;;;;;;3.70;3.40;;;;;;;14.50;84.97;101680.94;109399;275;38485;-74
2023/09/26 02:15:04;;;;;;;4.50;4.00;;;;;;;14.48;84.93;101677.32;109371;275;38898;-73
2023/09/26 02:17:40;;;;;;;5.00;3.60;;;;;;;14.46;84.86;101675.97;109424;275;38549;-75
2023/09/26 02:20:18;;;;;;;5.60;3.40;;;;;;;14.44;84.65;101675.31;109348;275;38323;-73
2023/09/26 02:22:53;;;;;;;5.50;3.90;;;;;;;14.41;84.82;101675.40;109063;275;38314;-74
2023/09/26 02:25:28;;;;;;;6.20;3.60;;;;;;;14.40;85.00;101676.68;109312;275;38283;-74
2023/09/26 02:28:02;;;;;;;7.50;4.10;;;;;;;14.39;85.12;101682.17;109278;275;38247;-71
2023/09/26 02:30:39;;;;;;;5.70;3.90;;;;;;;14.35;85.18;101678.59;109337;275;39495;-71
2023/09/26 02:33:14;;;;;;;6.20;3.60;;;;;;;14.31;85.39;101678.91;109272;275;38298;-71
2023/09/26 02:35:48;;;;;;;6.00;3.90;;;;;;;14.29;85.36;101679.30;109304;275;38583;-71
2023/09/26 02:38:25;;;;;;;4.20;3.30;;;;;;;14.26;85.45;101675.73;109337;275;38988;-72
2023/09/26 02:41:00;;;;;;;4.20;3.60;;;;;;;14.22;85.53;101677.80;109353;275;38456;-74
2023/09/26 02:43:38;;;;;;;6.20;3.70;;;;;;;14.17;85.28;101673.92;109399;275;38738;-71
2023/09/26 02:46:14;;;;;;;5.30;3.60;;;;;;;14.13;85.26;101674.04;109010;275;38614;-74
2023/09/26 02:48:50;;;;;;;4.40;3.70;;;;;;;14.10;85.43;101678.70;109426;275;39467;-72
2023/09/26 02:51:26;;;;;;;5.70;3.70;;;;;;;14.10;85.46;101679.42;109361;275;38473;-72
2023/09/26 02:54:01;;;;;;;5.50;3.90;;;;;;;14.11;85.64;101678.66;109379;275;38380;-75
2023/09/26 02:56:35;;;;;;;5.40;4.10;;;;;;;14.12;85.66;101683.20;108810;275;706594;-77
2023/09/26 02:59:16;;;;;;;6.20;4.00;;;;;;;14.11;85.79;101683.21;109286;275;38505;-75
2023/09/26 03:01:54;;;;;;;;;;;;;;;14.09;85.77;101679.61;109340;275;39511;-72
2023/09/26 03:04:32;;;;;;;4.40;3.50;;;;;;;14.04;85.91;101678.90;109251;275;175124;-74
2023/09/26 03:07:14;;;;;;;5.80;3.80;;;;;;;14.04;86.04;101673.11;109348;275;38230;-74
2023/09/26 03:09:52;;;;;;;6.10;3.80;;;;;;;14.04;86.09;101672.75;109360;275;38152;-74
2023/09/26 03:12:28;;;;;;;5.70;4.20;;;;;;;14.05;86.23;101669.74;109411;275;38374;-72
2023/09/26 03:15:06;;;;;;;5.00;3.60;;;;;;;14.00;86.13;101662.52;109367;275;38207;-74
2023/09/26 03:17:42;;;;;;;6.40;3.90;;;;;;;13.99;86.30;101663.09;109349;275;38238;-74
2023/09/26 03:20:20;;;;;;;4.40;4.00;;;;;;;14.00;86.29;101654.81;109291;275;38454;-72
2023/09/26 03:22:54;;;;;;;5.20;3.90;;;;;;;14.02;86.37;101653.16;109034;275;40765;-73
2023/09/26 03:25:33;;;;;;;5.90;3.80;;;;;;;14.04;86.57;101653.64;109354;275;39148;-74
2023/09/26 03:28:14;;;;;;;6.80;4.30;;;;;;;14.03;86.49;101652.43;109466;275;39441;-72
2023/09/26 03:30:49;;;;;;;6.60;3.70;;;;;;;14.00;86.45;101653.05;109396;275;39506;-71
2023/09/26 03:33:24;;;;;;;6.80;4.30;;;;;;;13.98;86.45;101651.73;108657;275;899200;-71
2023/09/26 03:36:00;;;;;;;5.10;3.70;;;;;;;13.95;86.56;101653.21;109023;275;38292;-71
2023/09/26 03:38:34;;;;;;;5.20;3.50;;;;;;;13.94;86.83;101652.55;109316;275;38852;-71
2023/09/26 03:41:08;;;;;;;4.50;3.60;;;;;;;13.92;86.86;101653.98;109313;275;39385;-72
2023/09/26 03:43:48;;;;;;;6.00;3.90;;;;;;;13.89;86.80;101650.75;108929;275;38866;-71
2023/09/26 03:46:23;;;;;;;5.10;3.80;;;;;;;13.87;86.85;101651.70;109275;275;38150;-71
2023/09/26 03:48:57;;;;;;;5.20;3.40;;;;;;;13.85;86.97;101648.63;108951;275;38535;-74
2023/09/26 03:51:31;;;;;;;5.60;3.20;;;;;;;13.80;86.75;101644.73;108994;275;39189;-75
2023/09/26 03:54:05;;;;;;;5.40;3.60;;;;;;;13.80;87.01;101639.48;109268;275;40083;-71
2023/09/26 03:56:40;;;;;;;4.50;3.50;;;;;;;13.78;87.01;101635.48;109263;275;38220;-71
2023/09/26 03:59:15;;;;;;;4.00;3.40;;;;;;;13.77;86.89;101634.99;109308;275;38482;-71
2023/09/26 04:01:51;;;;;;;6.10;3.70;;;;;;;13.75;86.97;101632.10;109277;275;38277;-72
2023/09/26 04:04:52;;;;;;;5.60;3.40;;;;;;;13.73;87.21;101631.63;109381;275;38559;-72
2023/09/26 04:07:28;;;;;;;4.80;3.40;;;;;;;13.72;87.44;101630.42;109383;275;39363;-72
2023/09/26 04:10:03;;;;;;;5.00;3.00;;;;;;;13.72;87.39;101632.55;109404;275;38481;-73
2023/09/26 04:12:36;;;;;;;3.60;3.00;;;;;;;13.73;87.65;101630.40;109380;275;38160;-71
2023/09/26 04:15:12;;;;;;;5.70;3.60;;;;;;;13.75;87.97;101628.92;109427;275;38815;-71
2023/09/26 04:17:47;;;;;;;6.60;3.30;;;;;;;13.77;88.31;101632.04;109440;275;38362;-73
2023/09/26 04:20:22;;;;;;;4.30;3.00;;;;;;;13.78;88.28;101630.41;109436;275;38520;-74
2023/09/26 04:22:57;;;;;;;5.70;3.30;;;;;;;13.79;88.26;101627.95;109534;275;39458;-73
2023/09/26 04:25:35;;;;;;;3.80;3.00;;;;;;;13.79;88.14;101628.27;109423;275;38476;-71
2023/09/26 04:28:10;;;;;;;6.00;3.80;;;;;;;13.79;88.12;101626.70;109174;275;38249;-72
2023/09/26 04:30:52;;;;;;;5.00;3.50;;;;;;;13.79;88.05;101631.45;109404;275;38248;-72
2023/09/26 04:33:28;;;;;;;6.50;3.40;;;;;;;13.77;88.27;101632.20;109133;276;38248;-72
2023/09/26 04:36:10;;;;;;;4.30;3.40;;;;;;;13.76;88.09;101633.10;109418;275;38139;-72
2023/09/26 04:38:46;;;;;;;4.00;3.10;;;;;;;13.76;88.20;101634.52;109390;275;38174;-71
2023/09/26 04:41:23;;;;;;;5.70;3.20;;;;;;;13.77;88.22;101635.02;109150;275;38208;-74
2023/09/26 04:43:57;;;;;;;3.70;3.10;;;;;;;13.75;87.98;101638.56;109362;275;38913;-71
2023/09/26 04:46:34;;;;;;;5.30;3.60;;;;;;;13.74;88.27;101642.46;109375;275;38697;-71
2023/09/26 04:49:08;;;;;;;3.00;2.70;;;;;;;13.74;88.44;101643.52;109399;275;38313;-72
2023/09/26 04:51:47;;;;;;;4.70;3.20;;;;;;;13.75;88.53;101645.58;109115;275;38185;-72
2023/09/26 04:54:25;;;;;;;4.70;2.70;;;;;;;13.77;88.63;101645.36;109412;275;38236;-72
2023/09/26 04:56:59;;;;;;;4.20;2.60;;;;;;;13.81;88.60;101646.46;109410;275;38217;-74
2023/09/26 04:59:38;;;;;;;4.50;3.20;;;;;;;13.86;88.75;101642.61;109367;275;38416;-73
2023/09/26 05:02:18;;;;;;;5.00;3.20;;;;;;;13.90;88.91;101646.34;109382;275;39388;-74
2023/09/26 05:04:53;;;;;;;5.80;3.80;;;;;;;13.93;89.11;101646.42;109524;275;38754;-71
2023/09/26 05:07:27;;;;;;;3.00;2.60;;;;;;;13.99;89.21;101648.00;109356;275;175146;-71
2023/09/26 05:10:03;;;;;;;2.70;2.50;;;;;;;14.05;89.37;101649.73;109382;275;39530;-74
2023/09/26 05:12:43;;;;;;;4.20;3.10;;;;;;;14.11;89.57;101650.95;109070;275;38991;-71
2023/09/26 05:15:18;;;;;;;4.90;3.10;;;;;;;14.18;89.70;101649.30;109369;275;38458;-71
2023/09/26 05:17:54;;;;;;;4.70;3.00;;;;;;;14.24;89.86;101646.51;109390;275;39018;-74
2023/09/26 05:20:28;;;;;;;3.60;2.90;;;;;;;14.30;89.62;101648.40;109333;275;39343;-74
2023/09/26 05:23:05;;;;;;;3.60;2.80;;;;;;;14.36;89.77;101648.20;109374;275;38312;-72
2023/09/26 05:25:39;;;;;;;6.00;3.00;;;;;;;14.42;89.75;101643.22;109108;275;39598;-72
2023/09/26 05:28:16;;;;;;;4.30;3.70;;;;;;;14.50;89.78;101637.59;109319;275;39701;-72
2023/09/26 05:30:50;;;;;;;5.20;3.70;;;;;;;14.58;89.81;101636.93;109314;275;38395;-73
2023/09/26 05:33:24;;;;;;;6.30;3.70;;;;;;;14.67;89.80;101635.73;109124;275;39020;-74
2023/09/26 05:35:58;;;;;;;5.10;3.60;;;;;;;14.75;89.75;101634.77;109285;275;38331;-72
2023/09/26 05:38:35;;;;;;;5.30;3.50;;;;;;;14.84;89.67;101634.27;109295;275;38350;-72
2023/09/26 05:41:08;;;;;;;4.90;4.30;;;;;;;14.91;89.72;101628.91;109066;275;39741;-75
2023/09/26 05:43:46;;;;;;;5.40;4.20;;;;;;;14.98;89.41;101630.11;109319;275;38183;-72
2023/09/26 05:46:23;;;;;;;8.20;4.30;;;;;;;15.04;89.33;101631.11;109396;275;38246;-73
2023/09/26 05:48:58;;;;;;;5.60;3.50;;;;;;;15.11;89.18;101631.73;109139;275;38514;-73
2023/09/26 05:51:31;;;;;;;8.90;4.30;;;;;;;15.17;88.99;101627.80;109412;275;38196;-72
2023/09/26 05:54:08;;;;;;;7.50;4.10;;;;;;;15.25;89.13;101635.76;109433;275;40644;-72
2023/09/26 05:56:57;;;;;;;6.30;4.20;;;;;;;15.34;88.95;101635.27;109165;275;38498;-74
2023/09/26 05:59:31;;;;;;;5.80;4.40;;;;;;;15.41;89.03;101634.29;109441;275;38180;-71
2023/09/26 06:02:08;;;;;;;9.00;4.00;;;;;;;15.48;88.84;101636.48;109374;275;38305;-73
2023/09/26 06:04:46;;;;;;;6.30;3.90;;;;;;;15.55;88.59;101637.30;109445;275;38149;-72
2023/09/26 06:07:21;;;;;;;5.30;4.40;;;;;;;15.62;88.58;101639.12;109165;276;38917;-72
2023/09/26 06:09:58;;;;;;;6.40;4.60;;;;;;;15.70;88.66;101639.52;109359;275;38334;-73
2023/09/26 06:12:35;;;;;;;8.30;4.40;;;;;;;15.79;88.58;101639.73;109189;275;38748;-75
2023/09/26 06:15:11;;;;;;;8.00;4.30;;;;;;;15.84;88.33;101635.46;109093;275;38328;-74
2023/09/26 06:17:48;;;;;;;9.00;4.90;;;;;;;15.89;88.06;101637.69;109020;275;38783;-76
2023/09/26 06:20:22;;;;;;;8.40;4.10;;;;;;;15.94;87.88;101641.05;109397;275;38279;-74
2023/09/26 06:22:59;;;;;;;7.70;5.00;;;;;;;15.99;87.84;101635.75;109329;275;38246;-73
2023/09/26 06:25:35;;;;;;;7.50;5.30;;;;;;;16.05;87.76;101637.43;109351;275;38225;-73
2023/09/26 06:28:15;;;;;;;6.80;4.50;;;;;;;16.10;87.72;101637.43;109366;275;38301;-72
2023/09/26 06:30:51;;;;;;;5.40;4.50;;;;;;;16.15;87.52;101636.14;109058;275;41495;-71
2023/09/26 06:33:30;;;;;;;9.60;5.20;;;;;;;16.20;87.39;101635.77;109315;275;38466;-73
2023/09/26 06:36:15;;;;;;;6.70;5.20;;;;;;;16.24;87.22;101638.23;109142;276;39125;-71
2023/09/26 06:38:53;;;;;;;8.50;5.20;;;;;;;16.31;87.10;101644.67;109192;275;39966;-73
2023/09/26 06:41:27;;;;;;;;;;;;;;;16.34;86.88;101647.84;109395;275;38896;-74
2023/09/26 06:44:11;;;;;;;7.10;5.10;;;;;;;16.38;86.81;101644.01;109127;275;38742;-71
2023/09/26 06:46:51;;;;;;;8.30;5.50;;;;;;;16.42;86.61;101640.65;109382;275;38597;-70
2023/09/26 06:49:32;;;;;;;7.40;4.90;;;;;;;16.47;86.45;101645.70;109298;275;39579;-74
2023/09/26 06:52:20;;;;;;;9.30;5.50;;;;;;;16.55;86.42;101649.64;109328;271;38438;-72
2023/09/26 06:54:55;;;;;;;5.60;5.00;;;;;;;16.60;86.13;101654.17;109094;275;39248;-74
2023/09/26 06:57:30;;;;;;;9.00;5.10;;;;;;;16.65;86.05;101651.80;108508;269;899474;-72
2023/09/26 07:00:11;;;;;;;8.70;5.10;;;;;;;16.69;85.93;101650.94;109269;275;38271;-72
2023/09/26 07:02:50;;;;;;;9.60;5.50;;;;;;;16.77;85.83;101647.28;109380;275;38287;-73
2023/09/26 07:05:26;;;;;;;8.70;6.50;;;;;;;16.85;85.80;101647.66;109341;275;38617;-75
2023/09/26 07:08:02;;;;;;;7.30;6.30;;;;;;;16.91;85.61;101649.88;109322;275;38960;-73
2023/09/26 07:10:40;;;;;;;9.30;6.40;;;;;;;16.95;85.51;101654.41;109297;275;39329;-71
2023/09/26 07:13:15;;;;;;;8.10;6.70;;;;;;;17.02;85.38;101646.88;109074;275;38410;-71
2023/09/26 07:15:58;;;;;;;9.10;6.60;;;;;;;17.09;85.42;101645.34;109097;275;38950;-71
2023/09/26 07:18:33;;;;;;;10.70;6.00;;;;;;;17.16;85.26;101648.55;109440;275;39773;-70
2023/09/26 07:21:14;;;;;;;15.40;6.20;;;;;;;17.23;85.21;101650.89;109444;275;39449;-70
2023/09/26 07:23:51;;;;;;;8.10;5.60;;;;;;;17.31;85.12;101649.98;109272;275;39273;-71
2023/09/26 07:26:27;;;;;;;7.90;6.10;;;;;;;17.39;84.82;101653.16;109435;275;38165;-71
2023/09/26 07:29:02;;;;;;;9.40;6.40;;;;;;;17.46;84.65;101655.15;109376;275;38172;-69
2023/09/26 07:31:39;;;;;;;11.60;7.60;;;;;;;17.53;84.67;101652.86;109114;275;38320;-69
2023/09/26 07:34:13;;;;;;;9.90;6.90;;;;;;;17.60;84.22;101653.42;109161;275;39607;-72
2023/09/26 07:36:47;;;;;;;15.70;7.70;;;;;;;17.66;84.01;101652.63;109308;275;38908;-70
2023/09/26 07:39:25;;;;;;;11.20;7.70;;;;;;;17.72;83.89;101652.84;109358;275;40045;-71
2023/09/26 07:42:00;;;;;;;12.10;8.30;;;;;;;17.77;83.81;101652.08;109254;275;38182;-71
2023/09/26 07:44:35;;;;;;;12.00;8.00;;;;;;;17.84;83.70;101648.61;109340;275;39020;-73
2023/09/26 07:47:09;;;;;;;13.90;8.40;;;;;;;17.90;83.68;101653.60;109296;275;39051;-71
2023/09/26 07:49:45;;;;;;;16.20;8.00;;;;;;;17.96;83.59;101656.81;109384;275;39000;-71
2023/09/26 07:52:27;;;;;;;19.30;9.20;;;;;;;18.02;83.25;101655.14;109437;275;38285;-70
2023/09/26 07:55:04;;;;;;;14.30;9.00;;;;;;;18.05;82.91;101654.98;109485;275;39338;-71
2023/09/26 07:57:39;;;;;;;17.70;9.20;;;;;;;18.05;82.43;101658.02;109437;275;38345;-71
2023/09/26 08:00:20;;;;;;;15.00;8.40;;;;;;;18.06;82.68;101655.66;109380;275;38257;-69
2023/09/26 08:02:57;;;;;;;12.00;8.90;;;;;;;18.11;82.55;101657.73;109418;275;38560;-71
2023/09/26 08:05:31;;;;;;;13.50;8.30;;;;;;;18.18;82.65;101656.15;109365;275;38434;-72
2023/09/26 08:08:06;;;;;;;16.20;8.40;;;;;;;18.25;82.41;101656.13;109397;275;39016;-71
2023/09/26 08:10:44;;;;;;;13.20;9.60;;;;;;;18.30;82.31;101655.14;109103;275;38226;-68
2023/09/26 08:13:19;;;;;;;12.90;9.20;;;;;;;18.37;82.32;101655.01;109432;275;38790;-72
2023/09/26 08:15:56;;;;;;;11.90;8.30;;;;;;;18.44;82.31;101653.20;109375;275;39666;-73
2023/09/26 08:18:36;;;;;;;14.70;9.20;;;;;;;18.53;82.25;101652.25;109358;275;38166;-72
2023/09/26 08:21:11;;;;;;;16.50;10.40;;;;;;;18.63;82.01;101657.59;109265;275;174883;-70
2023/09/26 08:23:46;;;;;;;13.10;10.40;;;;;;;18.69;81.62;101653.59;109446;275;39475;-72
2023/09/26 08:26:20;;;;;;;15.70;10.40;;;;;;;18.71;81.42;101654.17;109409;275;39482;-72
2023/09/26 08:28:56;;;;;;;14.60;10.70;;;;;;;18.73;81.25;101650.90;109175;276;38147;-71
2023/09/26 08:31:30;;;;;;;15.40;10.40;;;;;;;18.77;81.10;101648.05;109455;275;38737;-73
2023/09/26 08:34:05;;;;;;;13.80;10.70;;;;;;;18.83;81.05;101642.27;109178;275;38186;-71
2023/09/26 08:36:40;;;;;;;19.10;10.70;;;;;;;18.92;81.21;101641.62;109130;276;38281;-73
2023/09/26 08:39:14;;;;;;;16.00;11.00;;;;;;;19.02;81.22;101636.48;109415;275;38440;-75
2023/09/26 08:41:49;;;;;;;15.00;10.90;;;;;;;19.15;81.29;101635.80;109368;275;38293;-74
2023/09/26 08:44:26;;;;;;;16.10;11.40;;;;;;;19.28;80.88;101633.32;109403;275;39324;-72
2023/09/26 08:47:01;;;;;;;15.90;11.90;;;;;;;19.39;80.31;101632.91;109377;275;38682;-71
2023/09/26 08:49:40;;;;;;;19.30;12.20;;;;;;;19.48;80.28;101632.54;109362;275;39922;-72
2023/09/26 08:52:17;;;;;;;15.80;12.20;;;;;;;19.59;79.77;101628.79;109155;275;38770;-73
2023/09/26 08:54:52;;;;;;;17.20;12.10;;;;;;;19.66;79.30;101625.08;109135;275;39778;-74
2023/09/26 08:57:31;;;;;;;15.20;10.60;;;;;;;19.71;79.43;101625.98;109047;275;38127;-72
2023/09/26 09:00:13;;;;;;;14.90;11.40;;;;;;;19.81;79.02;101620.81;109380;275;39777;-74
2023/09/26 09:02:52;;;;;;;13.10;11.60;;;;;;;19.89;78.62;101622.50;109426;275;39340;-73
2023/09/26 09:05:30;;;;;;;14.40;12.30;;;;;;;19.99;78.40;101625.98;109400;275;39596;-75
2023/09/26 09:08:09;;;;;;;20.70;13.50;;;;;;;20.06;78.20;101625.07;109507;275;39732;-74
2023/09/26 09:10:59;;;;;;;17.90;13.20;;;;;;;20.10;77.68;101623.40;109354;275;39377;-73
2023/09/26 09:13:35;;;;;;;15.40;12.20;;;;;;;20.13;77.19;101625.71;109440;275;38238;-74
2023/09/26 09:16:15;;;;;;;14.20;12.30;;;;;;;20.13;77.01;101627.30;109228;275;188116;-73
2023/09/26 09:18:53;;;;;;;16.80;13.90;;;;;;;20.15;76.59;101629.33;109149;275;39545;-73
2023/09/26 09:21:34;;;;;;;16.80;13.80;;;;;;;20.17;76.44;101630.61;109380;275;39075;-72
2023/09/26 09:24:11;;;;;;;17.80;15.60;;;;;;;20.20;76.31;101627.45;109394;275;38363;-71
2023/09/26 09:26:52;;;;;;;21.20;15.30;;;;;;;20.23;76.07;101625.85;109417;275;39306;-71
2023/09/26 09:29:31;;;;;;;17.10;14.10;;;;;;;20.22;75.76;101628.73;109360;275;38501;-73
2023/09/26 09:32:07;;;;;;;16.70;13.70;;;;;;;20.23;75.74;101627.63;109215;275;174816;-72
2023/09/26 09:34:42;;;;;;;16.50;13.50;;;;;;;20.25;75.53;101626.27;109352;275;38453;-74
2023/09/26 09:37:19;;;;;;;17.20;14.00;;;;;;;20.28;75.18;101624.50;109375;275;38485;-72
2023/09/26 09:39:56;;;;;;;14.90;13.20;;;;;;;20.28;74.72;101626.08;109356;275;38768;-76
2023/09/26 09:42:33;;;;;;;16.60;13.40;;;;;;;20.31;74.70;101628.20;109384;275;38318;-74
2023/09/26 09:45:11;;;;;;;16.50;13.40;;;;;;;20.34;74.54;101625.54;109255;275;39796;-74
2023/09/26 09:47:47;;;;;;;16.10;13.80;;;;;;;20.37;74.54;101627.84;109341;275;38891;-72
2023/09/26 09:50:22;;;;;;;17.30;13.00;;;;;;;20.40;74.42;101624.48;109343;275;39624;-71
2023/09/26 09:53:01;;;;;;;15.30;12.80;;;;;;;20.44;74.14;101624.08;109159;275;40555;-71
2023/09/26 09:55:39;;;;;;;15.60;13.20;;;;;;;20.49;74.23;101625.41;109079;275;38744;-71
2023/09/26 09:58:18;;;;;;;14.80;12.90;;;;;;;20.55;74.29;101625.23;109305;275;38487;-74
2023/09/26 10:00:54;;;;;;;16.60;13.60;;;;;;;20.60;74.09;101621.15;109320;275;38247;-73
2023/09/26 10:03:33;;;;;;;17.90;14.90;;;;;;;20.65;73.66;101618.81;109289;275;38295;-73
2023/09/26 10:06:12;;;;;;;21.00;15.90;;;;;;;20.68;73.56;101618.94;109302;275;38618;-72
2023/09/26 10:08:50;;;;;;;20.50;14.70;;;;;;;20.70;72.78;101616.89;109278;275;38154;-72
2023/09/26 10:11:30;;;;;;;16.90;14.10;;;;;;;20.73;73.20;101618.97;109357;275;38176;-70
2023/09/26 10:14:12;;;;;;;14.70;13.00;;;;;;;20.82;73.57;101615.92;109381;275;38309;-74
2023/09/26 10:16:49;;;;;;;15.40;13.70;;;;;;;20.98;73.65;101608.25;109376;275;38537;-73
2023/09/26 10:19:25;;;;;;;18.60;14.10;;;;;;;21.13;72.89;101611.35;109370;275;38754;-75
2023/09/26 10:22:18;;;;;;;16.70;14.90;;;;;;;21.21;71.94;101609.95;109350;275;38414;-72
2023/09/26 10:24:53;;;;;;;17.40;14.10;;;;;;;21.33;72.28;101609.40;109388;275;39154;-72
2023/09/26 10:27:45;;;;;;;15.90;14.20;;;;;;;21.47;72.09;101603.75;109356;275;38778;-72
2023/09/26 10:30:20;;;;;;;19.90;14.40;;;;;;;21.58;71.53;101604.64;109388;275;38440;-72
2023/09/26 10:32:54;;;;;;;18.90;15.00;;;;;;;21.63;70.69;101599.66;109360;275;38736;-73
2023/09/26 10:35:33;;;;;;;17.80;15.70;;;;;;;21.63;70.13;101602.02;108957;275;174800;-72
2023/09/26 10:38:18;;;;;;;17.60;15.10;;;;;;;21.60;70.07;101599.49;109384;275;39392;-73
2023/09/26 10:40:53;;;;;;;19.20;14.60;;;;;;;21.58;69.67;101602.86;109132;275;38730;-72
2023/09/26 10:43:35;;;;;;;17.20;15.10;;;;;;;21.54;69.48;101600.45;109259;275;174757;-83
2023/09/26 10:46:13;;;;;;;17.40;14.60;;;;;;;21.50;69.28;101600.54;109316;275;39979;-73
2023/09/26 10:48:52;;;;;;;17.80;14.20;;;;;;;21.43;69.44;101599.23;109319;275;38341;-73
2023/09/26 10:51:33;;;;;;;16.00;14.10;;;;;;;21.41;69.52;101593.66;109323;275;38483;-74
2023/09/26 10:54:10;;;;;;;20.00;14.30;;;;;;;21.38;69.49;101597.05;109346;275;39341;-71
2023/09/26 10:56:49;;;;;;;19.30;14.90;;;;;;;21.36;69.52;101591.65;108714;275;747755;-72
2023/09/26 10:59:23;;;;;;;16.80;14.70;;;;;;;21.34;69.38;101589.28;109318;275;38274;-75
2023/09/26 11:02:00;;;;;;;18.50;14.60;;;;;;;21.27;69.12;101588.66;109313;275;38151;-74
2023/09/26 11:04:35;;;;;;;20.10;15.40;;;;;;;21.22;69.58;101585.59;109377;275;38395;-74
2023/09/26 11:07:12;;;;;;;19.70;15.60;;;;;;;21.26;69.82;101588.00;109328;275;38449;-73
2023/09/26 11:09:48;;;;;;;21.60;15.70;;;;;;;21.32;69.94;101583.06;109402;275;38166;-71
2023/09/26 11:12:26;;;;;;;19.80;15.00;;;;;;;21.35;69.59;101577.72;109298;275;38489;-72
2023/09/26 11:15:05;;;;;;;21.00;16.20;;;;;;;21.31;69.59;101580.64;109365;275;38170;-75
2023/09/26 11:17:49;;;;;;;20.20;14.90;;;;;;;21.26;69.47;101584.61;109401;275;38767;-74
2023/09/26 11:20:24;;;;;;;18.40;15.60;;;;;;;21.24;69.57;101583.51;109266;275;38849;-72
2023/09/26 11:23:02;;;;;;;18.90;15.60;;;;;;;21.22;69.66;101583.98;109325;275;39399;-76
2023/09/26 11:25:41;;;;;;;20.70;15.60;;;;;;;21.21;69.67;101575.16;109151;275;38295;-75
2023/09/26 11:28:16;;;;;;;18.30;15.60;;;;;;;21.23;69.96;101572.80;109295;275;38431;-72
2023/09/26 11:30:51;;;;;;;22.40;16.60;;;;;;;21.24;69.65;101570.77;109320;275;38225;-71
2023/09/26 11:33:25;;;;;;;18.10;15.90;;;;;;;21.23;69.89;101567.27;109387;275;38170;-72
2023/09/26 11:36:02;;;;;;;21.50;16.40;;;;;;;21.23;69.92;101564.97;109233;275;174788;-71
2023/09/26 11:38:51;;;;;;;19.10;15.40;;;;;;;21.24;69.92;101563.67;109416;275;38829;-74
2023/09/26 11:41:26;;;;;;;18.10;15.10;;;;;;;21.24;69.70;101561.36;109183;275;39819;-73
2023/09/26 11:44:11;;;;;;;19.10;15.50;;;;;;;21.23;69.82;101556.63;109027;275;39812;-74
2023/09/26 11:46:49;;;;;;;18.30;14.80;;;;;;;21.24;69.73;101549.80;109204;275;38665;-73
2023/09/26 11:49:29;;;;;;;17.80;15.20;;;;;;;21.22;69.56;101546.73;109073;275;40000;-75
2023/09/26 11:52:05;;;;;;;18.50;15.20;;;;;;;21.22;69.63;101542.86;109105;275;39638;-73
2023/09/26 11:54:42;;;;;;;17.70;14.40;;;;;;;21.23;69.37;101545.64;109283;275;38677;-74
2023/09/26 11:57:21;;;;;;;19.50;14.60;;;;;;;21.20;69.01;101539.61;109273;275;38265;-74
2023/09/26 11:59:56;;;;;;;17.10;14.90;;;;;;;21.18;69.35;101538.83;109268;275;39328;-73
2023/09/26 12:02:36;;;;;;;18.10;15.00;;;;;;;21.18;69.26;101535.48;109296;275;38300;-75
2023/09/26 12:05:11;;;;;;;17.30;13.10;;;;;;;21.18;69.53;101534.92;109295;275;38591;-75